sensor_id;sensor_type;location;lat;lon;timestamp;pressure;altitude;pressure_sealevel;temperature;humidity
76632;BME280;65526;48.578;-4.520;2022-12-18T00:01:57;101006.09;;;-1.14;75.70
76632;BME280;65526;48.578;-4.520;2022-12-18T00:04:27;101489.38;;;1.62;75.95
76632;BME280;65526;48.578;-4.520;2022-12-18T00:06:53;101179.16;;;-0.48;75.70
76632;BME280;65526;48.578;-4.520;2022-12-18T00:09:20;101106.03;;;-0.25;75.73
76632;BME280;65526;48.578;-4.520;2022-12-18T00:11:47;100848.25;;;-1.83;75.97
76632;BME280;65526;48.578;-4.520;2022-12-18T00:14:14;101135.78;;;-0.34;75.98
76632;BME280;65526;48.578;-4.520;2022-12-18T00:16:44;100847.97;;;-1.81;75.94
76632;BME280;65526;48.578;-4.520;2022-12-18T00:19:11;100672.81;;;-3.06;76.17
76632;BME280;65526;48.578;-4.520;2022-12-18T00:21:41;100557.56;;;-3.52;75.86
76632;BME280;65526;48.578;-4.520;2022-12-18T00:24:09;100833.50;;;-1.87;76.32
76632;BME280;65526;48.578;-4.520;2022-12-18T00:26:36;101036.09;;;-0.42;76.41
76632;BME280;65526;48.578;-4.520;2022-12-18T00:29:12;101047.03;;;-0.31;76.52
76632;BME280;65526;48.578;-4.520;2022-12-18T00:31:43;100847.56;;;-1.48;76.43
76632;BME280;65526;48.578;-4.520;2022-12-18T00:34:11;101156.31;;;-0.21;76.91
76632;BME280;65526;48.578;-4.520;2022-12-18T00:36:40;101382.25;;;1.84;77.31
76632;BME280;65526;48.578;-4.520;2022-12-18T00:39:07;101170.66;;;0.26;77.37
76632;BME280;65526;48.578;-4.520;2022-12-18T00:41:33;101023.28;;;-0.36;77.61
76632;BME280;65526;48.578;-4.520;2022-12-18T00:44:19;100398.59;;;-4.17;76.56
76632;BME280;65526;48.578;-4.520;2022-12-18T00:46:46;100904.72;;;-0.96;77.71
76632;BME280;65526;48.578;-4.520;2022-12-18T00:49:17;101158.09;;;0.51;77.62
76632;BME280;65526;48.578;-4.520;2022-12-18T00:51:44;101034.53;;;-0.02;77.06
76632;BME280;65526;48.578;-4.520;2022-12-18T00:54:11;100787.34;;;-1.51;77.37
76632;BME280;65526;48.578;-4.520;2022-12-18T00:56:39;101019.19;;;-0.18;77.07
76632;BME280;65526;48.578;-4.520;2022-12-18T00:59:06;101037.81;;;0.10;77.63
76632;BME280;65526;48.578;-4.520;2022-12-18T01:01:33;100798.03;;;-1.30;77.37
76632;BME280;65526;48.578;-4.520;2022-12-18T01:04:02;100992.44;;;-0.11;77.96
76632;BME280;65526;48.578;-4.520;2022-12-18T01:06:29;100471.28;;;-3.82;77.30
76632;BME280;65526;48.578;-4.520;2022-12-18T01:08:55;100925.09;;;-1.18;77.79
76632;BME280;65526;48.578;-4.520;2022-12-18T01:11:22;100933.44;;;-0.37;77.99
76632;BME280;65526;48.578;-4.520;2022-12-18T01:13:49;100769.34;;;-1.52;77.74
76632;BME280;65526;48.578;-4.520;2022-12-18T01:16:16;100768.53;;;-1.48;78.13
76632;BME280;65526;48.578;-4.520;2022-12-18T01:18:43;101375.63;;;2.05;78.75
76632;BME280;65526;48.578;-4.520;2022-12-18T01:21:12;100729.84;;;-1.45;78.01
76632;BME280;65526;48.578;-4.520;2022-12-18T01:23:39;101011.28;;;0.16;78.41
76632;BME280;65526;48.578;-4.520;2022-12-18T01:26:07;100765.22;;;-1.65;78.66
76632;BME280;65526;48.578;-4.520;2022-12-18T01:28:35;101103.66;;;0.79;79.14
76632;BME280;65526;48.578;-4.520;2022-12-18T01:31:15;101258.06;;;1.98;79.36
76632;BME280;65526;48.578;-4.520;2022-12-18T01:33:43;100939.44;;;0.05;79.41
76632;BME280;65526;48.578;-4.520;2022-12-18T01:36:15;100446.72;;;-2.98;78.93
76632;BME280;65526;48.578;-4.520;2022-12-18T01:38:42;100875.56;;;-0.29;79.64
76632;BME280;65526;48.578;-4.520;2022-12-18T01:41:09;101292.81;;;2.18;79.72
76632;BME280;65526;48.578;-4.520;2022-12-18T01:44:46;100439.94;;;-2.86;78.85
76632;BME280;65526;48.578;-4.520;2022-12-18T01:46:54;100730.41;;;-1.17;78.88
76632;BME280;65526;48.578;-4.520;2022-12-18T01:49:21;100661.72;;;-1.45;78.83
76632;BME280;65526;48.578;-4.520;2022-12-18T01:51:47;100410.84;;;-3.68;79.03
76632;BME280;65526;48.578;-4.520;2022-12-18T01:54:13;100550.53;;;-2.24;79.25
76632;BME280;65526;48.578;-4.520;2022-12-18T01:56:40;100873.66;;;-0.14;79.00
76632;BME280;65526;48.578;-4.520;2022-12-18T01:59:09;100433.63;;;-3.06;78.75
76632;BME280;65526;48.578;-4.520;2022-12-18T02:01:37;100401.41;;;-3.50;78.54
76632;BME280;65526;48.578;-4.520;2022-12-18T02:04:24;100781.94;;;-0.81;79.33
76632;BME280;65526;48.578;-4.520;2022-12-18T02:12:51;100649.72;;;-1.54;79.66
76632;BME280;65526;48.578;-4.520;2022-12-18T02:15:26;100308.03;;;-3.39;79.59
76632;BME280;65526;48.578;-4.520;2022-12-18T02:18:19;100951.63;;;0.63;80.63
76632;BME280;65526;48.578;-4.520;2022-12-18T02:20:48;100572.31;;;-1.73;79.49
76632;BME280;65526;48.578;-4.520;2022-12-18T02:23:42;100901.66;;;0.37;80.59
76632;BME280;65526;48.578;-4.520;2022-12-18T02:26:34;100972.75;;;0.27;79.92
76632;BME280;65526;48.578;-4.520;2022-12-18T02:29:05;101254.09;;;2.74;80.50
76632;BME280;65526;48.578;-4.520;2022-12-18T02:31:41;100561.41;;;-2.14;79.97
76632;BME280;65526;48.578;-4.520;2022-12-18T02:34:11;100437.00;;;-2.64;80.53
76632;BME280;65526;48.578;-4.520;2022-12-18T02:36:40;100677.72;;;-0.72;80.66
76632;BME280;65526;48.578;-4.520;2022-12-18T02:39:11;101033.34;;;0.75;80.92
76632;BME280;65526;48.578;-4.520;2022-12-18T02:41:45;101249.31;;;2.90;80.83
76632;BME280;65526;48.578;-4.520;2022-12-18T02:44:13;100892.78;;;0.71;81.12
76632;BME280;65526;48.578;-4.520;2022-12-18T02:46:43;100410.63;;;-2.23;80.37
76632;BME280;65526;48.578;-4.520;2022-12-18T02:52:29;100912.78;;;0.61;81.16
76632;BME280;65526;48.578;-4.520;2022-12-18T02:55:31;101094.84;;;2.16;80.82
76632;BME280;65526;48.578;-4.520;2022-12-18T03:01:19;100924.34;;;1.02;80.92
76632;BME280;65526;48.578;-4.520;2022-12-18T03:03:53;100944.56;;;1.11;81.15
76632;BME280;65526;48.578;-4.520;2022-12-18T03:06:37;100922.06;;;1.25;81.45
76632;BME280;65526;48.578;-4.520;2022-12-18T03:09:10;100785.88;;;0.13;80.86
76632;BME280;65526;48.578;-4.520;2022-12-18T03:11:40;100948.47;;;1.44;81.54
76632;BME280;65526;48.578;-4.520;2022-12-18T03:14:29;100476.38;;;-1.35;81.23
76632;BME280;65526;48.578;-4.520;2022-12-18T03:17:00;100614.31;;;-0.44;80.84
76632;BME280;65526;48.578;-4.520;2022-12-18T03:19:32;100679.34;;;0.03;81.54
76632;BME280;65526;48.578;-4.520;2022-12-18T03:22:02;100287.63;;;-2.35;81.00
76632;BME280;65526;48.578;-4.520;2022-12-18T03:24:38;100683.38;;;0.16;81.23
76632;BME280;65526;48.578;-4.520;2022-12-18T03:27:11;100766.44;;;0.69;81.38
76632;BME280;65526;48.578;-4.520;2022-12-18T03:29:44;100909.75;;;1.61;81.54
76632;BME280;65526;48.578;-4.520;2022-12-18T03:32:41;100918.53;;;1.58;81.42
76632;BME280;65526;48.578;-4.520;2022-12-18T03:35:08;100654.13;;;-0.28;82.05
76632;BME280;65526;48.578;-4.520;2022-12-18T03:37:37;100422.09;;;-1.31;81.08
76632;BME280;65526;48.578;-4.520;2022-12-18T03:40:05;100714.22;;;0.26;81.12
76632;BME280;65526;48.578;-4.520;2022-12-18T03:45:16;101189.34;;;3.59;82.12
76632;BME280;65526;48.578;-4.520;2022-12-18T03:50:48;101187.88;;;3.67;82.01
76632;BME280;65526;48.578;-4.520;2022-12-18T03:56:04;100409.34;;;-1.46;82.24
76632;BME280;65526;48.578;-4.520;2022-12-18T03:58:37;100864.25;;;1.65;82.65
76632;BME280;65526;48.578;-4.520;2022-12-18T04:01:17;100192.38;;;-2.35;82.31
76632;BME280;65526;48.578;-4.520;2022-12-18T04:03:48;100518.72;;;-0.83;83.26
76632;BME280;65526;48.578;-4.520;2022-12-18T04:06:21;100813.16;;;1.79;82.68
76632;BME280;65526;48.578;-4.520;2022-12-18T04:08:51;100878.84;;;2.13;83.10
76632;BME280;65526;48.578;-4.520;2022-12-18T04:11:24;100402.13;;;-1.11;82.93
76632;BME280;65526;48.578;-4.520;2022-12-18T04:13:50;100213.22;;;-1.56;83.52
76632;BME280;65526;48.578;-4.520;2022-12-18T04:16:23;100182.03;;;-1.79;83.98
76632;BME280;65526;48.578;-4.520;2022-12-18T04:18:54;100594.69;;;0.95;83.46
76632;BME280;65526;48.578;-4.520;2022-12-18T04:21:21;100812.34;;;2.26;84.07
76632;BME280;65526;48.578;-4.520;2022-12-18T04:23:50;100456.50;;;0.26;83.57
76632;BME280;65526;48.578;-4.520;2022-12-18T04:26:20;100586.00;;;1.16;83.92
76632;BME280;65526;48.578;-4.520;2022-12-18T04:29:02;100581.06;;;1.18;84.39
76632;BME280;65526;48.578;-4.520;2022-12-18T04:31:29;100246.16;;;-0.80;83.71
76632;BME280;65526;48.578;-4.520;2022-12-18T04:33:57;100255.44;;;-1.14;84.49
76632;BME280;65526;48.578;-4.520;2022-12-18T04:36:25;100165.47;;;-1.14;84.32
76632;BME280;65526;48.578;-4.520;2022-12-18T04:38:52;100687.78;;;2.14;84.63
76632;BME280;65526;48.578;-4.520;2022-12-18T04:41:18;101125.78;;;4.60;85.48
76632;BME280;65526;48.578;-4.520;2022-12-18T04:43:47;100787.06;;;2.53;84.71
76632;BME280;65526;48.578;-4.520;2022-12-18T04:46:14;100807.59;;;3.12;84.99
76632;BME280;65526;48.578;-4.520;2022-12-18T04:48:41;100792.47;;;2.77;84.78
76632;BME280;65526;48.578;-4.520;2022-12-18T04:51:07;100805.69;;;2.94;84.84
76632;BME280;65526;48.578;-4.520;2022-12-18T04:53:34;100535.25;;;1.67;84.24
76632;BME280;65526;48.578;-4.520;2022-12-18T04:56:12;100243.91;;;-0.44;84.17
76632;BME280;65526;48.578;-4.520;2022-12-18T04:58:41;100242.63;;;-0.04;84.74
76632;BME280;65526;48.578;-4.520;2022-12-18T05:01:09;100546.50;;;1.65;85.02
76632;BME280;65526;48.578;-4.520;2022-12-18T05:03:38;101095.81;;;4.91;86.18
76632;BME280;65526;48.578;-4.520;2022-12-18T05:06:06;101017.03;;;4.76;85.97
76632;BME280;65526;48.578;-4.520;2022-12-18T05:08:33;101034.19;;;5.00;86.55
76632;BME280;65526;48.578;-4.520;2022-12-18T05:11:09;100168.69;;;-0.31;85.37
76632;BME280;65526;48.578;-4.520;2022-12-18T05:13:37;101094.91;;;5.09;85.67
76632;BME280;65526;48.578;-4.520;2022-12-18T05:16:06;100282.72;;;0.01;85.28
76632;BME280;65526;48.578;-4.520;2022-12-18T05:18:33;101091.03;;;5.10;86.20
76632;BME280;65526;48.578;-4.520;2022-12-18T05:21:00;100296.94;;;0.22;85.51
76632;BME280;65526;48.578;-4.520;2022-12-18T05:23:27;100481.84;;;1.83;85.83
76632;BME280;65526;48.578;-4.520;2022-12-18T05:25:59;100247.34;;;-0.09;85.12
76632;BME280;65526;48.578;-4.520;2022-12-18T05:28:30;100658.28;;;2.94;86.58
76632;BME280;65526;48.578;-4.520;2022-12-18T05:30:59;100950.13;;;4.48;85.99
76632;BME280;65526;48.578;-4.520;2022-12-18T05:33:30;100865.97;;;3.87;86.34
76632;BME280;65526;48.578;-4.520;2022-12-18T05:35:59;100737.94;;;3.54;86.78
76632;BME280;65526;48.578;-4.520;2022-12-18T05:38:26;100220.16;;;0.23;85.78
76632;BME280;65526;48.578;-4.520;2022-12-18T05:40:54;100463.50;;;1.83;85.57
76632;BME280;65526;48.578;-4.520;2022-12-18T05:43:31;100291.19;;;0.47;85.47
76632;BME280;65526;48.578;-4.520;2022-12-18T05:45:57;100684.31;;;3.29;85.75
76632;BME280;65526;48.578;-4.520;2022-12-18T05:48:24;100743.16;;;3.69;86.33
76632;BME280;65526;48.578;-4.520;2022-12-18T05:50:51;100781.75;;;3.78;85.76
76632;BME280;65526;48.578;-4.520;2022-12-18T05:53:20;100374.88;;;1.04;85.38
76632;BME280;65526;48.578;-4.520;2022-12-18T05:55:47;100239.28;;;0.23;85.37
76632;BME280;65526;48.578;-4.520;2022-12-18T05:58:16;100747.34;;;3.94;86.15
76632;BME280;65526;48.578;-4.520;2022-12-18T06:00:47;101047.84;;;5.60;86.98
76632;BME280;65526;48.578;-4.520;2022-12-18T06:03:16;100467.84;;;2.35;86.08
76632;BME280;65526;48.578;-4.520;2022-12-18T06:05:50;100211.75;;;0.20;86.53
76632;BME280;65526;48.578;-4.520;2022-12-18T06:08:17;100522.84;;;2.71;86.13
76632;BME280;65526;48.578;-4.520;2022-12-18T06:10:50;101048.03;;;5.77;86.44
76632;BME280;65526;48.578;-4.520;2022-12-18T06:13:18;100531.38;;;2.84;86.43
76632;BME280;65526;48.578;-4.520;2022-12-18T06:15:53;100446.22;;;2.61;85.90
76632;BME280;65526;48.578;-4.520;2022-12-18T06:18:43;100501.31;;;2.92;86.30
76632;BME280;65526;48.578;-4.520;2022-12-18T06:21:09;100429.78;;;2.61;86.61
76632;BME280;65526;48.578;-4.520;2022-12-18T06:23:44;100718.59;;;4.27;86.31
76632;BME280;65526;48.578;-4.520;2022-12-18T06:26:12;100222.28;;;1.15;85.44
76632;BME280;65526;48.578;-4.520;2022-12-18T06:28:39;100532.75;;;3.13;85.46
76632;BME280;65526;48.578;-4.520;2022-12-18T06:31:12;100315.06;;;1.95;85.77
76632;BME280;65526;48.578;-4.520;2022-12-18T06:33:39;100356.72;;;2.38;85.29
76632;BME280;65526;48.578;-4.520;2022-12-18T06:36:11;100885.13;;;5.74;85.75
76632;BME280;65526;48.578;-4.520;2022-12-18T06:38:41;100208.50;;;1.06;85.80
76632;BME280;65526;48.578;-4.520;2022-12-18T06:41:10;100909.91;;;6.10;86.87
76632;BME280;65526;48.578;-4.520;2022-12-18T06:43:40;100458.34;;;3.37;87.00
76632;BME280;65526;48.578;-4.520;2022-12-18T06:46:11;100612.00;;;4.33;87.67
76632;BME280;65526;48.578;-4.520;2022-12-18T06:48:46;100447.22;;;3.20;86.95
76632;BME280;65526;48.578;-4.520;2022-12-18T06:51:16;100663.84;;;4.75;87.34
76632;BME280;65526;48.578;-4.520;2022-12-18T06:53:43;100228.69;;;1.70;86.66
76632;BME280;65526;48.578;-4.520;2022-12-18T06:56:09;100440.72;;;3.16;86.46
76632;BME280;65526;48.578;-4.520;2022-12-18T06:58:39;100148.78;;;1.68;86.34
76632;BME280;65526;48.578;-4.520;2022-12-18T07:01:08;100247.84;;;2.25;86.53
76632;BME280;65526;48.578;-4.520;2022-12-18T07:03:36;100442.22;;;3.58;87.16
76632;BME280;65526;48.578;-4.520;2022-12-18T07:06:02;100631.53;;;4.67;87.88
76632;BME280;65526;48.578;-4.520;2022-12-18T07:08:30;100262.31;;;2.66;87.73
76632;BME280;65526;48.578;-4.520;2022-12-18T07:10:56;100519.50;;;4.15;88.05
76632;BME280;65526;48.578;-4.520;2022-12-18T07:13:23;100382.88;;;3.57;88.57
76632;BME280;65526;48.578;-4.520;2022-12-18T07:15:49;100648.44;;;4.97;89.11
76632;BME280;65526;48.578;-4.520;2022-12-18T07:18:16;100285.09;;;3.03;88.96
76632;BME280;65526;48.578;-4.520;2022-12-18T07:20:42;100491.03;;;4.19;88.42
76632;BME280;65526;48.578;-4.520;2022-12-18T07:23:08;100550.88;;;4.36;89.13
76632;BME280;65526;48.578;-4.520;2022-12-18T07:25:36;100706.25;;;5.81;88.68
76632;BME280;65526;48.578;-4.520;2022-12-18T07:28:03;100064.38;;;2.28;88.44
76632;BME280;65526;48.578;-4.520;2022-12-18T07:30:30;100610.34;;;5.69;89.36
76632;BME280;65526;48.578;-4.520;2022-12-18T07:32:56;100649.44;;;5.71;89.45
76632;BME280;65526;48.578;-4.520;2022-12-18T07:35:23;100537.97;;;5.46;89.52
76632;BME280;65526;48.578;-4.520;2022-12-18T07:37:49;100050.47;;;2.47;89.05
76632;BME280;65526;48.578;-4.520;2022-12-18T07:40:16;100426.47;;;4.87;89.38
76632;BME280;65526;48.578;-4.520;2022-12-18T07:42:42;100567.91;;;5.87;89.76
76632;BME280;65526;48.578;-4.520;2022-12-18T07:45:09;100928.41;;;7.79;89.48
76632;BME280;65526;48.578;-4.520;2022-12-18T07:47:35;100490.47;;;5.67;89.29
76632;BME280;65526;48.578;-4.520;2022-12-18T07:50:03;100402.44;;;5.18;89.46
76632;BME280;65526;48.578;-4.520;2022-12-18T07:52:30;100261.41;;;3.99;88.97
76632;BME280;65526;48.578;-4.520;2022-12-18T07:54:56;100387.38;;;5.25;89.62
76632;BME280;65526;48.578;-4.520;2022-12-18T07:57:23;100430.13;;;5.39;89.98
76632;BME280;65526;48.578;-4.520;2022-12-18T07:59:49;100613.53;;;6.54;90.59
76632;BME280;65526;48.578;-4.520;2022-12-18T08:02:15;100392.06;;;5.58;89.83
76632;BME280;65526;48.578;-4.520;2022-12-18T08:04:42;100535.47;;;6.36;90.08
76632;BME280;65526;48.578;-4.520;2022-12-18T08:07:08;100884.63;;;8.54;90.30
76632;BME280;65526;48.578;-4.520;2022-12-18T08:09:34;100881.47;;;8.64;90.27
76632;BME280;65526;48.578;-4.520;2022-12-18T08:12:01;100607.38;;;7.29;90.19
76632;BME280;65526;48.578;-4.520;2022-12-18T08:14:27;100168.31;;;4.58;90.06
76632;BME280;65526;48.578;-4.520;2022-12-18T08:16:53;100619.53;;;7.45;90.77
76632;BME280;65526;48.578;-4.520;2022-12-18T08:19:20;100614.47;;;7.47;90.43
76632;BME280;65526;48.578;-4.520;2022-12-18T08:21:46;100664.47;;;7.72;90.87
76632;BME280;65526;48.578;-4.520;2022-12-18T08:24:13;100447.47;;;6.34;90.17
76632;BME280;65526;48.578;-4.520;2022-12-18T08:26:39;100832.41;;;9.14;90.62
76632;BME280;65526;48.578;-4.520;2022-12-18T08:29:06;100432.59;;;6.65;90.25
76632;BME280;65526;48.578;-4.520;2022-12-18T08:31:32;100794.78;;;9.26;90.36
76632;BME280;65526;48.578;-4.520;2022-12-18T08:33:59;100188.81;;;5.30;90.18
76632;BME280;65526;48.578;-4.520;2022-12-18T08:36:25;100405.19;;;6.89;90.29
76632;BME280;65526;48.578;-4.520;2022-12-18T08:38:52;100512.38;;;7.63;90.29
76632;BME280;65526;48.578;-4.520;2022-12-18T08:41:19;100782.75;;;9.42;90.46
76632;BME280;65526;48.578;-4.520;2022-12-18T08:43:45;100564.50;;;8.03;90.29
76632;BME280;65526;48.578;-4.520;2022-12-18T08:46:41;100478.59;;;7.78;90.21
76632;BME280;65526;48.578;-4.520;2022-12-18T08:49:09;100487.97;;;7.86;90.70
76632;BME280;65526;48.578;-4.520;2022-12-18T08:51:36;100534.06;;;8.23;90.94
76632;BME280;65526;48.578;-4.520;2022-12-18T08:54:04;100135.63;;;5.76;90.19
76632;BME280;65526;48.578;-4.520;2022-12-18T08:56:30;100368.03;;;7.28;90.14
76632;BME280;65526;48.578;-4.520;2022-12-18T08:58:57;100179.38;;;5.86;90.26
76632;BME280;65526;48.578;-4.520;2022-12-18T09:01:24;100103.84;;;5.78;90.16
76632;BME280;65526;48.578;-4.520;2022-12-18T09:03:50;100217.31;;;6.27;90.26
76632;BME280;65526;48.578;-4.520;2022-12-18T09:06:20;100345.81;;;7.45;90.66
76632;BME280;65526;48.578;-4.520;2022-12-18T09:08:46;100127.44;;;5.96;90.48
76632;BME280;65526;48.578;-4.520;2022-12-18T09:11:26;100100.34;;;5.99;90.03
76632;BME280;65526;48.578;-4.520;2022-12-18T09:13:54;100243.97;;;6.94;90.13
76632;BME280;65526;48.578;-4.520;2022-12-18T09:16:21;100562.91;;;8.76;90.57
76632;BME280;65526;48.578;-4.520;2022-12-18T09:18:48;100265.88;;;6.99;89.74
76632;BME280;65526;48.578;-4.520;2022-12-18T09:21:19;100553.84;;;9.00;89.93
76632;BME280;65526;48.578;-4.520;2022-12-18T09:23:50;100571.38;;;8.92;89.77
76632;BME280;65526;48.578;-4.520;2022-12-18T09:26:17;100519.75;;;8.75;90.13
76632;BME280;65526;48.578;-4.520;2022-12-18T09:28:43;100426.72;;;8.08;89.81
76632;BME280;65526;48.578;-4.520;2022-12-18T09:31:11;100512.84;;;8.93;89.98
76632;BME280;65526;48.578;-4.520;2022-12-18T09:33:40;100220.25;;;7.13;89.57
76632;BME280;65526;48.578;-4.520;2022-12-18T09:36:09;100551.19;;;9.03;89.90
76632;BME280;65526;48.578;-4.520;2022-12-18T09:38:35;100363.88;;;8.09;90.06
76632;BME280;65526;48.578;-4.520;2022-12-18T09:43:57;100130.28;;;6.71;89.77
76632;BME280;65526;48.578;-4.520;2022-12-18T09:46:36;100589.06;;;9.69;89.90
76632;BME280;65526;48.578;-4.520;2022-12-18T09:49:12;100402.31;;;8.22;89.62
76632;BME280;65526;48.578;-4.520;2022-12-18T09:52:11;100376.25;;;8.23;89.54
76632;BME280;65526;48.578;-4.520;2022-12-18T09:54:41;100818.03;;;10.68;89.93
76632;BME280;65526;48.578;-4.520;2022-12-18T09:57:17;100755.03;;;10.60;90.09
76632;BME280;65526;48.578;-4.520;2022-12-18T09:59:47;100225.81;;;7.26;89.71
76632;BME280;65526;48.578;-4.520;2022-12-18T10:02:19;100062.59;;;6.32;89.54
76632;BME280;65526;48.578;-4.520;2022-12-18T10:07:33;100639.56;;;9.74;89.72
76632;BME280;65526;48.578;-4.520;2022-12-18T10:13:21;100781.66;;;10.73;89.93
76632;BME280;65526;48.578;-4.520;2022-12-18T10:18:39;100817.56;;;10.79;89.50
76632;BME280;65526;48.578;-4.520;2022-12-18T10:21:15;100588.81;;;9.49;89.84
76632;BME280;65526;48.578;-4.520;2022-12-18T10:24:02;100788.84;;;10.75;89.75
76632;BME280;65526;48.578;-4.520;2022-12-18T10:26:31;100288.38;;;7.63;89.54
76632;BME280;65526;48.578;-4.520;2022-12-18T10:28:59;100796.84;;;10.76;90.02
76632;BME280;65526;48.578;-4.520;2022-12-18T10:31:25;100771.09;;;10.79;89.61
76632;BME280;65526;48.578;-4.520;2022-12-18T10:33:53;100234.50;;;7.48;89.54
76632;BME280;65526;48.578;-4.520;2022-12-18T10:36:20;100135.53;;;6.85;89.52
76632;BME280;65526;48.578;-4.520;2022-12-18T10:38:47;100203.75;;;6.84;89.23
76632;BME280;65526;48.578;-4.520;2022-12-18T10:44:19;100442.63;;;8.89;89.42
76632;BME280;65526;48.578;-4.520;2022-12-18T10:46:48;100532.84;;;9.23;89.54
76632;BME280;65526;48.578;-4.520;2022-12-18T10:49:45;100317.19;;;8.07;89.13
76632;BME280;65526;48.578;-4.520;2022-12-18T10:52:25;100773.50;;;10.93;89.57
76632;BME280;65526;48.578;-4.520;2022-12-18T10:54:58;100819.16;;;10.92;89.39
76632;BME280;65526;48.578;-4.520;2022-12-18T10:57:39;100319.03;;;8.15;89.15
76632;BME280;65526;48.578;-4.520;2022-12-18T11:00:28;100362.47;;;8.35;89.18
76632;BME280;65526;48.578;-4.520;2022-12-18T11:02:55;100752.31;;;10.88;89.57
76632;BME280;65526;48.578;-4.520;2022-12-18T11:05:28;100792.03;;;11.01;89.48
76632;BME280;65526;48.578;-4.520;2022-12-18T11:07:56;100598.41;;;9.76;89.09
76632;BME280;65526;48.578;-4.520;2022-12-18T11:10:28;100547.78;;;9.67;89.29
76632;BME280;65526;48.578;-4.520;2022-12-18T11:12:55;100407.41;;;8.53;88.85
76632;BME280;65526;48.578;-4.520;2022-12-18T11:15:29;100383.84;;;8.59;88.89
76632;BME280;65526;48.578;-4.520;2022-12-18T11:17:56;100357.16;;;8.30;88.88
76632;BME280;65526;48.578;-4.520;2022-12-18T11:20:34;100535.97;;;9.70;88.90
76632;BME280;65526;48.578;-4.520;2022-12-18T11:23:05;100224.69;;;7.84;88.81
76632;BME280;65526;48.578;-4.520;2022-12-18T11:25:36;100381.91;;;8.72;88.82
76632;BME280;65526;48.578;-4.520;2022-12-18T11:30:49;100402.19;;;8.76;88.94
76632;BME280;65526;48.578;-4.520;2022-12-18T11:33:34;100365.38;;;8.51;89.02
76632;BME280;65526;48.578;-4.520;2022-12-18T11:36:03;100512.81;;;9.78;89.14
76632;BME280;65526;48.578;-4.520;2022-12-18T11:38:41;100577.53;;;10.07;88.91
76632;BME280;65526;48.578;-4.520;2022-12-18T11:41:37;100608.53;;;10.33;89.07
76632;BME280;65526;48.578;-4.520;2022-12-18T11:44:28;100164.97;;;7.59;88.78
76632;BME280;65526;48.578;-4.520;2022-12-18T11:47:01;100170.41;;;7.67;88.35
76632;BME280;65526;48.578;-4.520;2022-12-18T11:49:33;100267.97;;;8.37;88.77
76632;BME280;65526;48.578;-4.520;2022-12-18T11:52:21;100714.94;;;11.13;89.05
76632;BME280;65526;48.578;-4.520;2022-12-18T11:54:57;100093.34;;;7.21;88.57
76632;BME280;65526;48.578;-4.520;2022-12-18T12:24:51;100675.38;;;11.20;89.18
76632;BME280;65526;48.578;-4.520;2022-12-18T12:30:18;100677.25;;;11.16;89.01
76632;BME280;65526;48.578;-4.520;2022-12-18T12:33:03;100713.06;;;11.18;88.79
76632;BME280;65526;48.578;-4.520;2022-12-18T12:38:14;100667.94;;;11.24;88.88
76632;BME280;65526;48.578;-4.520;2022-12-18T12:40:57;100479.81;;;10.01;88.87
76632;BME280;65526;48.578;-4.520;2022-12-18T12:43:44;100308.28;;;9.11;88.51
76632;BME280;65526;48.578;-4.520;2022-12-18T12:46:13;100653.72;;;11.13;89.02
76632;BME280;65526;48.578;-4.520;2022-12-18T12:48:53;100431.91;;;9.76;89.31
76632;BME280;65526;48.578;-4.520;2022-12-18T12:51:25;100039.84;;;7.49;88.84
76632;BME280;65526;48.578;-4.520;2022-12-18T12:53:54;100094.66;;;7.84;89.03
76632;BME280;65526;48.578;-4.520;2022-12-18T12:56:21;100457.88;;;9.84;89.41
76632;BME280;65526;48.578;-4.520;2022-12-18T12:58:58;100614.63;;;11.22;89.58
76632;BME280;65526;48.578;-4.520;2022-12-18T13:04:25;100110.91;;;7.85;88.91
76632;BME280;65526;48.578;-4.520;2022-12-18T13:07:12;99943.56;;;7.15;88.68
76632;BME280;65526;48.578;-4.520;2022-12-18T13:25:52;100166.56;;;8.85;89.16
76632;BME280;65526;48.578;-4.520;2022-12-18T13:32:00;99986.34;;;7.70;89.25
76632;BME280;65526;48.578;-4.520;2022-12-18T13:36:48;100221.75;;;9.18;89.43
76632;BME280;65526;48.578;-4.520;2022-12-18T13:41:41;100544.63;;;11.51;89.94
76632;BME280;65526;48.578;-4.520;2022-12-18T13:46:57;100029.44;;;8.23;89.03
76632;BME280;65526;48.578;-4.520;2022-12-18T13:49:24;100591.66;;;11.57;89.64
76632;BME280;65526;48.578;-4.520;2022-12-18T13:51:54;100332.56;;;9.98;89.14
76632;BME280;65526;48.578;-4.520;2022-12-18T13:54:40;100542.09;;;11.62;89.15
76632;BME280;65526;48.578;-4.520;2022-12-18T13:57:30;100542.91;;;11.63;89.41
76632;BME280;65526;48.578;-4.520;2022-12-18T14:00:14;100228.22;;;9.22;89.53
76632;BME280;65526;48.578;-4.520;2022-12-18T14:02:44;100178.25;;;9.34;89.06
76632;BME280;65526;48.578;-4.520;2022-12-18T14:05:32;99977.56;;;7.80;88.76
76632;BME280;65526;48.578;-4.520;2022-12-18T14:08:11;100370.00;;;10.31;89.22
76632;BME280;65526;48.578;-4.520;2022-12-18T14:10:44;100347.84;;;10.19;89.09
76632;BME280;65526;48.578;-4.520;2022-12-18T14:13:19;100558.81;;;11.62;89.59
76632;BME280;65526;48.578;-4.520;2022-12-18T14:15:48;100010.34;;;8.46;89.20
76632;BME280;65526;48.578;-4.520;2022-12-18T14:18:26;100522.63;;;11.62;89.57
76632;BME280;65526;48.578;-4.520;2022-12-18T14:20:58;100230.66;;;9.82;89.11
76632;BME280;65526;48.578;-4.520;2022-12-18T14:23:35;100522.25;;;11.64;89.38
76632;BME280;65526;48.578;-4.520;2022-12-18T14:26:17;99942.84;;;7.94;88.94
76632;BME280;65526;48.578;-4.520;2022-12-18T14:28:46;100142.84;;;8.99;89.50
76632;BME280;65526;48.578;-4.520;2022-12-18T14:31:26;100547.38;;;11.67;89.55
76632;BME280;65526;48.578;-4.520;2022-12-18T14:33:53;100127.50;;;9.18;88.99
76632;BME280;65526;48.578;-4.520;2022-12-18T14:36:25;100154.97;;;9.38;89.19
76632;BME280;65526;48.578;-4.520;2022-12-18T14:38:54;100558.16;;;11.69;89.44
76632;BME280;65526;48.578;-4.520;2022-12-18T14:41:21;100071.84;;;8.95;89.29
76632;BME280;65526;48.578;-4.520;2022-12-18T14:43:50;100251.97;;;9.94;89.45
76632;BME280;65526;48.578;-4.520;2022-12-18T14:49:17;99936.66;;;8.13;89.38
76632;BME280;65526;48.578;-4.520;2022-12-18T14:51:51;100045.94;;;8.59;89.43
76632;BME280;65526;48.578;-4.520;2022-12-18T14:54:19;100536.25;;;11.83;89.76